Time;durP1;ratioP1;P1;durP2;ratioP2;P2;SDS_P1;SDS_P2;PMS_P1;PMS_P2;Temp;Humidity;BMP_temperature;BMP_pressure;BME280_temperature;BME280_humidity;BME280_pressure;Samples;Min_cycle;Max_cycle;Signal;HPM_P1;HPM_P2
2022/09/18 00:01:23;;;;;;;8.20;7.50;;;;;;;25.51;45.78;99764.94;6212602;23;20025;-86
2022/09/18 00:03:53;;;;;;;8.32;7.53;;;;;;;25.18;45.63;99701.06;6211452;23;20067;-85
2022/09/18 00:06:23;;;;;;;8.13;7.32;;;;;;;25.15;45.67;99695.34;6213360;23;20020;-86
2022/09/18 00:08:56;;;;;;;7.68;7.18;;;;;;;25.59;45.29;99765.78;6212438;23;20021;-86
2022/09/18 00:11:25;;;;;;;7.93;7.43;;;;;;;25.66;45.87;99766.63;6211754;23;20030;-86
2022/09/18 00:13:52;;;;;;;7.38;6.70;;;;;;;25.42;45.32;99744.47;6212661;23;20532;-86
2022/09/18 00:16:21;;;;;;;7.93;7.40;;;;;;;25.64;45.23;99777.66;6212676;23;20360;-86
2022/09/18 00:18:48;;;;;;;9.02;8.27;;;;;;;25.66;45.32;99772.34;6211525;23;20491;-86
2022/09/18 00:21:18;;;;;;;6.90;6.40;;;;;;;25.63;45.37;99767.41;6212785;23;20032;-87
2022/09/18 00:23:45;;;;;;;9.07;8.30;;;;;;;25.49;45.50;99747.34;6213577;23;20028;-87
2022/09/18 00:26:15;;;;;;;7.20;6.70;;;;;;;25.45;44.91;99743.66;6213004;23;20020;-87
2022/09/18 00:28:42;;;;;;;7.57;6.97;;;;;;;25.47;44.65;99758.34;6212102;23;20024;-86
2022/09/18 00:31:12;;;;;;;8.02;7.35;;;;;;;25.53;44.65;99753.91;6212384;23;20021;-87
2022/09/18 00:33:40;;;;;;;8.73;7.82;;;;;;;25.24;44.60;99719.47;6213384;23;20074;-86
2022/09/18 00:36:10;;;;;;;10.60;7.63;;;;;;;25.51;44.71;99756.34;6214014;23;20024;-85
2022/09/18 00:38:40;;;;;;;8.65;7.85;;;;;;;25.45;44.74;99755.09;6212917;23;20016;-84
2022/09/18 00:41:11;;;;;;;9.27;8.57;;;;;;;25.37;44.76;99724.81;6216184;23;20103;-85
2022/09/18 00:43:38;;;;;;;12.93;12.15;;;;;;;25.22;44.47;99718.22;6243458;23;20020;-85
2022/09/18 00:46:35;;;;;;;7.88;7.18;;;;;;;25.44;44.34;99753.47;6218842;23;20065;-86
2022/09/18 00:49:11;;;;;;;8.40;7.65;;;;;;;25.45;44.46;99755.09;6219602;23;20027;-86
2022/09/18 00:51:40;;;;;;;7.32;6.82;;;;;;;25.20;44.25;99710.06;6223146;23;20046;-86
2022/09/18 00:54:42;;;;;;;7.85;7.25;;;;;;;25.29;44.33;99727.66;6262256;22;20004;-86
2022/09/18 00:57:18;;;;;;;9.45;7.68;;;;;;;25.15;44.55;99701.88;6265493;22;20499;-86
2022/09/18 00:59:49;;;;;;;7.85;7.05;;;;;;;25.21;44.04;99713.75;6272450;22;20063;-87
2022/09/18 01:02:17;;;;;;;7.30;6.80;;;;;;;25.31;43.81;99732.16;6219375;23;20024;-85
2022/09/18 01:04:46;;;;;;;7.85;7.13;;;;;;;25.18;43.41;99706.78;6244145;23;20225;-85
2022/09/18 01:07:34;;;;;;;7.72;7.22;;;;;;;25.41;43.56;99749.38;6217835;23;20039;-85
2022/09/18 01:10:12;;;;;;;7.57;6.95;;;;;;;25.30;43.34;99731.34;6243747;23;20459;-85
2022/09/18 01:12:49;;;;;;;7.47;6.82;;;;;;;25.24;43.56;99722.34;6242873;23;20028;-86
2022/09/18 01:15:37;;;;;;;8.60;7.10;;;;;;;25.22;43.70;99715.38;6218400;23;20031;-86
2022/09/18 01:18:20;;;;;;;8.27;7.60;;;;;;;25.50;43.44;99746.13;6219702;23;20024;-85
2022/09/18 01:20:59;;;;;;;7.28;6.38;;;;;;;25.44;43.24;99740.00;6222559;23;20016;-85
2022/09/18 01:23:35;;;;;;;6.72;6.13;;;;;;;25.47;43.18;99749.78;6253789;23;20024;-85
2022/09/18 01:26:14;;;;;;;8.13;7.53;;;;;;;25.49;43.00;99741.63;6229470;23;20888;-85
2022/09/18 01:28:53;;;;;;;6.68;6.20;;;;;;;25.22;43.10;99710.47;6226050;23;20035;-85
2022/09/18 01:31:47;;;;;;;7.18;6.68;;;;;;;25.28;43.24;99708.88;6245200;23;20020;-86
2022/09/18 01:34:20;;;;;;;7.30;6.80;;;;;;;25.46;43.12;99734.66;6245465;23;20210;-86
2022/09/18 01:36:53;;;;;;;6.72;6.28;;;;;;;25.32;43.29;99716.66;6218884;23;20471;-86
2022/09/18 01:39:45;;;;;;;7.40;6.90;;;;;;;25.47;43.14;99742.03;6219540;23;20090;-85
2022/09/18 01:42:17;;;;;;;8.90;6.35;;;;;;;25.34;42.87;99719.94;6245424;23;20024;-85
2022/09/18 01:44:46;;;;;;;6.95;6.55;;;;;;;25.19;42.83;99685.56;6218738;23;20455;-85
2022/09/18 01:47:15;;;;;;;7.05;6.47;;;;;;;25.43;42.28;99723.22;6218425;23;20026;-86
2022/09/18 01:49:46;;;;;;;6.93;6.40;;;;;;;25.36;42.34;99717.47;6245116;23;20027;-86
2022/09/18 01:52:26;;;;;;;7.28;6.78;;;;;;;25.40;42.26;99729.75;6219101;23;20038;-86
2022/09/18 01:54:56;;;;;;;7.28;6.88;;;;;;;25.09;42.07;99677.72;6246019;23;20020;-87
2022/09/18 01:57:26;;;;;;;7.15;6.50;;;;;;;25.12;41.90;99673.28;6243740;23;20347;-86
2022/09/18 02:00:04;;;;;;;7.15;6.57;;;;;;;25.01;42.13;99668.31;6219607;23;20016;-86
2022/09/18 02:02:51;;;;;;;7.00;6.50;;;;;;;25.32;41.33;99733.78;6219489;23;20024;-86
2022/09/18 02:05:48;;;;;;;7.10;6.60;;;;;;;25.34;41.53;99726.47;6216784;23;20020;-86
2022/09/18 02:08:27;;;;;;;7.50;6.90;;;;;;;25.39;41.92;99723.22;6214932;23;20027;-86
2022/09/18 02:11:03;;;;;;;7.97;7.28;;;;;;;25.29;42.00;99706.84;6243654;23;20099;-86
2022/09/18 02:13:36;;;;;;;7.43;6.93;;;;;;;25.11;41.89;99674.47;6217587;23;20028;-84
2022/09/18 02:16:09;;;;;;;6.85;6.35;;;;;;;25.33;41.71;99712.56;6216783;23;20043;-86
2022/09/18 02:18:41;;;;;;;6.47;6.07;;;;;;;25.40;41.95;99724.03;6218397;23;20170;-86
2022/09/18 02:21:15;;;;;;;6.53;6.03;;;;;;;25.33;41.40;99715.41;6218262;23;20020;-85
2022/09/18 02:23:44;;;;;;;7.20;6.57;;;;;;;25.35;41.43;99710.13;6245884;23;20020;-86
2022/09/18 02:26:13;;;;;;;6.95;6.45;;;;;;;25.39;41.47;99699.53;6246244;23;20020;-87
2022/09/18 02:28:40;;;;;;;;;;;;;;;25.33;41.41;99724.00;6218050;23;20027;-85
2022/09/18 02:31:07;;;;;;;6.97;6.47;;;;;;;24.96;41.39;99653.59;6243272;23;19926;-87
2022/09/18 02:33:36;;;;;;;6.78;6.28;;;;;;;25.22;41.19;99707.63;6218366;23;20020;-86
2022/09/18 02:36:33;;;;;;;7.25;6.78;;;;;;;25.23;40.86;99712.13;6194402;23;20079;-86
2022/09/18 02:39:26;;;;;;;6.93;6.47;;;;;;;25.24;41.37;99725.19;6218498;23;20043;-85
2022/09/18 02:41:59;;;;;;;7.13;6.60;;;;;;;25.20;40.68;99721.50;6224025;23;20030;-86
2022/09/18 02:44:32;;;;;;;9.20;8.57;;;;;;;25.22;41.13;99719.03;6218055;23;20020;-86
2022/09/18 02:47:08;;;;;;;7.22;6.43;;;;;;;25.05;40.58;99679.75;6217795;23;20020;-86
2022/09/18 02:49:35;;;;;;;7.40;6.72;;;;;;;25.25;40.62;99718.25;6216950;23;20047;-86
2022/09/18 02:52:20;;;;;;;7.80;7.20;;;;;;;25.27;41.10;99718.69;6246184;23;20448;-86
2022/09/18 02:54:56;;;;;;;7.20;6.53;;;;;;;25.16;40.43;99697.81;6219647;23;20024;-86
2022/09/18 02:57:37;;;;;;;9.90;9.30;;;;;;;25.10;40.78;99690.81;6218278;23;20443;-87
2022/09/18 03:00:06;;;;;;;9.30;7.50;;;;;;;25.18;40.41;99709.63;6244147;23;20026;-86
2022/09/18 03:02:33;;;;;;;7.25;6.20;;;;;;;25.03;39.96;99687.91;6218243;23;20025;-85
2022/09/18 03:05:00;;;;;;;7.03;6.53;;;;;;;25.26;40.20;99717.03;6219610;23;20020;-85
2022/09/18 03:07:27;;;;;;;6.95;6.47;;;;;;;25.09;39.87;99691.19;6243662;23;20020;-86
2022/09/18 03:09:53;;;;;;;7.78;7.05;;;;;;;25.13;39.88;99701.47;6245784;23;20016;-86
2022/09/18 03:12:20;;;;;;;8.27;7.72;;;;;;;25.03;39.68;99688.72;6217684;23;20031;-86
2022/09/18 03:14:47;;;;;;;7.63;7.03;;;;;;;25.07;39.41;99694.47;6218681;23;20020;-86
2022/09/18 03:17:14;;;;;;;6.88;6.47;;;;;;;24.86;39.36;99666.59;6244845;23;20343;-86
2022/09/18 03:19:43;;;;;;;6.20;5.70;;;;;;;25.14;39.07;99691.66;6245105;23;20012;-86
2022/09/18 03:22:10;;;;;;;7.65;7.00;;;;;;;25.03;39.13;99693.63;6217835;23;20027;-86
2022/09/18 03:24:37;;;;;;;9.18;8.43;;;;;;;25.11;39.33;99683.03;6219606;23;20522;-87
2022/09/18 03:27:05;;;;;;;10.68;8.20;;;;;;;25.16;39.07;99692.09;6243998;23;20396;-86
2022/09/18 03:29:32;;;;;;;7.65;6.88;;;;;;;25.25;39.11;99697.44;6249619;23;20016;-87
2022/09/18 03:31:59;;;;;;;10.70;9.88;;;;;;;25.14;39.73;99668.00;6225866;23;20034;-86
2022/09/18 03:34:26;;;;;;;9.50;8.90;;;;;;;25.22;39.39;99683.94;6254317;23;20024;-86
2022/09/18 03:36:53;;;;;;;6.50;6.10;;;;;;;25.16;39.53;99694.97;6231241;23;20466;-86
2022/09/18 03:39:20;;;;;;;7.28;6.78;;;;;;;24.96;39.66;99662.97;6228026;23;20038;-87
2022/09/18 03:41:46;;;;;;;7.38;6.78;;;;;;;24.93;39.58;99663.78;6216858;23;20046;-86
2022/09/18 03:44:13;;;;;;;6.45;6.05;;;;;;;24.95;40.05;99675.59;6218384;23;20009;-86
2022/09/18 03:46:40;;;;;;;7.03;6.53;;;;;;;25.10;40.07;99698.56;6216328;23;20020;-86
2022/09/18 03:49:07;;;;;;;7.10;6.60;;;;;;;24.60;39.85;99630.53;6216344;23;20387;-87
2022/09/18 03:51:34;;;;;;;7.35;6.85;;;;;;;24.80;40.14;99668.19;6213524;23;20071;-86
2022/09/18 03:54:01;;;;;;;7.47;6.90;;;;;;;24.29;40.21;99581.38;6211727;23;20025;-86
2022/09/18 03:56:28;;;;;;;7.72;7.10;;;;;;;24.70;40.26;99657.53;6210829;23;20029;-85
2022/09/18 03:58:55;;;;;;;6.40;6.00;;;;;;;24.84;40.58;99674.72;6212336;23;20495;-86
2022/09/18 04:01:22;;;;;;;7.25;6.80;;;;;;;24.63;40.44;99635.44;6209344;23;20027;-85
2022/09/18 04:03:49;;;;;;;7.93;7.28;;;;;;;24.80;40.37;99669.00;6214849;23;20379;-86
2022/09/18 04:06:15;;;;;;;6.70;6.25;;;;;;;24.44;40.19;99615.75;6213449;23;20039;-86
2022/09/18 04:08:42;;;;;;;7.53;6.95;;;;;;;24.58;40.34;99639.50;6214027;23;20017;-85
2022/09/18 04:11:09;;;;;;;6.88;6.40;;;;;;;24.89;39.87;99702.94;6214628;23;20550;-86
2022/09/18 04:13:36;;;;;;;7.03;6.60;;;;;;;24.57;40.03;99648.47;6209705;23;20028;-85
2022/09/18 04:16:03;;;;;;;6.75;6.35;;;;;;;24.87;39.98;99693.13;6215084;23;20021;-86
2022/09/18 04:18:30;;;;;;;7.55;6.95;;;;;;;24.73;39.95;99674.66;6213401;23;20020;-86
2022/09/18 04:20:57;;;;;;;6.65;6.25;;;;;;;24.81;39.88;99687.75;6214166;23;20020;-86
2022/09/18 04:23:23;;;;;;;6.90;6.40;;;;;;;24.68;40.14;99660.75;6213108;23;20020;-86
2022/09/18 04:25:50;;;;;;;6.97;6.57;;;;;;;24.80;40.41;99676.75;6215756;23;20020;-86
2022/09/18 04:28:17;;;;;;;6.80;6.40;;;;;;;24.85;39.94;99692.69;6216376;23;20034;-86
2022/09/18 04:30:46;;;;;;;6.95;6.50;;;;;;;24.66;39.76;99651.78;6215366;23;20464;-86
2022/09/18 04:33:13;;;;;;;6.82;6.35;;;;;;;24.90;40.17;99695.19;6217183;23;20032;-86
2022/09/18 04:35:41;;;;;;;8.97;8.07;;;;;;;24.76;40.07;99678.78;6222033;23;20077;-85
2022/09/18 04:38:08;;;;;;;7.40;6.90;;;;;;;24.86;40.39;99683.72;6229930;23;20187;-86
2022/09/18 04:40:35;;;;;;;9.23;8.70;;;;;;;24.90;40.52;99695.19;6230049;23;20060;-87
2022/09/18 04:43:04;;;;;;;7.32;6.70;;;;;;;24.76;40.04;99685.31;6254194;23;20020;-87
2022/09/18 04:45:31;;;;;;;7.03;6.63;;;;;;;24.70;40.80;99669.75;6263803;23;20039;-86
2022/09/18 04:47:57;;;;;;;7.68;6.68;;;;;;;24.77;40.92;99683.25;6258789;23;20030;-87
2022/09/18 04:50:25;;;;;;;6.93;6.40;;;;;;;24.60;40.79;99676.22;6232823;23;20024;-87
2022/09/18 04:52:51;;;;;;;6.70;6.20;;;;;;;24.70;40.69;99709.72;6225112;23;20043;-85
2022/09/18 04:55:18;;;;;;;6.70;6.07;;;;;;;24.55;40.75;99674.56;6214995;23;20362;-85
2022/09/18 04:57:45;;;;;;;6.65;6.25;;;;;;;24.67;40.73;99684.00;6217092;23;20477;-85
2022/09/18 05:00:18;;;;;;;7.13;6.63;;;;;;;24.17;40.25;99592.28;6216848;23;20016;-86
2022/09/18 05:02:45;;;;;;;7.20;6.70;;;;;;;24.30;40.33;99625.00;6242137;23;20455;-86
2022/09/18 05:05:12;;;;;;;7.32;6.82;;;;;;;24.04;40.66;99586.09;6243442;23;20020;-86
2022/09/18 05:07:38;;;;;;;7.18;6.70;;;;;;;24.32;40.33;99634.81;6216058;23;20027;-86
2022/09/18 05:10:09;;;;;;;7.88;7.32;;;;;;;24.56;40.55;99678.22;6215179;23;20020;-85
2022/09/18 05:12:39;;;;;;;7.68;6.97;;;;;;;24.70;40.80;99704.00;6216472;23;20020;-86
2022/09/18 05:15:07;;;;;;;7.30;6.80;;;;;;;24.53;40.52;99676.97;6214955;23;20028;-87
2022/09/18 05:17:33;;;;;;;8.00;7.50;;;;;;;24.72;40.80;99715.06;6242244;23;20024;-84
2022/09/18 05:20:00;;;;;;;7.43;6.93;;;;;;;24.62;40.45;99685.22;6215309;23;20471;-85
2022/09/18 05:22:27;;;;;;;6.97;6.47;;;;;;;24.54;40.67;99672.09;6243050;23;20016;-86
2022/09/18 05:24:54;;;;;;;7.90;7.30;;;;;;;24.74;40.44;99702.00;6216885;23;20455;-86
2022/09/18 05:27:21;;;;;;;7.80;7.30;;;;;;;24.56;40.55;99667.63;6241699;23;20024;-85
2022/09/18 05:29:52;;;;;;;7.47;6.97;;;;;;;24.82;40.11;99717.16;6217666;23;20070;-86
2022/09/18 05:32:19;;;;;;;7.55;7.05;;;;;;;24.68;40.27;99706.44;6215859;23;20027;-86
2022/09/18 05:34:48;;;;;;;7.65;7.05;;;;;;;24.00;40.34;99620.28;6216952;23;20024;-85
2022/09/18 05:37:16;;;;;;;7.78;7.07;;;;;;;24.41;40.73;99673.59;6216702;23;20020;-86
2022/09/18 05:39:42;;;;;;;7.18;6.78;;;;;;;24.38;40.67;99682.97;6242833;23;20023;-86
2022/09/18 05:42:09;;;;;;;7.90;7.20;;;;;;;24.54;40.86;99709.19;6216224;23;20031;-86
2022/09/18 05:44:36;;;;;;;7.90;7.38;;;;;;;24.39;40.47;99698.84;6216164;23;20498;-86
2022/09/18 05:47:04;;;;;;;7.38;6.78;;;;;;;24.49;40.51;99703.88;6215353;23;20024;-86
2022/09/18 05:49:31;;;;;;;7.47;6.97;;;;;;;24.30;40.81;99697.13;6216329;23;20456;-86
2022/09/18 05:51:57;;;;;;;7.38;6.88;;;;;;;24.36;41.12;99701.28;6242823;23;20016;-86
2022/09/18 05:54:24;;;;;;;7.95;7.45;;;;;;;24.30;40.64;99693.47;6213990;23;20027;-86
2022/09/18 05:56:52;;;;;;;7.47;7.00;;;;;;;24.02;40.87;99668.38;6242575;23;20020;-86
2022/09/18 05:59:19;;;;;;;7.35;6.95;;;;;;;23.98;40.59;99685.44;6242747;23;20016;-86
2022/09/18 06:01:46;;;;;;;7.40;6.63;;;;;;;24.09;40.18;99697.75;6218441;23;20023;-86
2022/09/18 06:04:13;;;;;;;7.93;7.32;;;;;;;24.02;40.20;99685.47;6244089;23;20391;-85
2022/09/18 06:06:40;;;;;;;6.70;6.40;;;;;;;24.15;40.63;99706.78;6219329;23;20024;-86
2022/09/18 06:09:06;;;;;;;7.90;7.30;;;;;;;24.00;40.89;99687.88;6244672;23;20028;-86
2022/09/18 06:11:33;;;;;;;7.53;7.05;;;;;;;24.35;40.37;99715.94;6219550;23;20026;-86
2022/09/18 06:14:00;;;;;;;8.02;7.63;;;;;;;24.09;40.33;99688.41;6218640;23;20026;-85
2022/09/18 06:16:27;;;;;;;8.60;8.02;;;;;;;24.08;40.14;99672.50;6218780;23;20020;-84
2022/09/18 06:18:54;;;;;;;9.30;8.77;;;;;;;24.16;40.24;99674.19;6245896;23;20023;-86
2022/09/18 06:21:21;;;;;;;8.05;7.10;;;;;;;24.43;39.48;99711.16;6244128;23;20016;-83
2022/09/18 06:23:48;;;;;;;11.05;10.50;;;;;;;24.33;39.41;99699.19;6217173;23;20060;-86
2022/09/18 06:26:15;;;;;;;9.43;8.75;;;;;;;24.41;39.43;99716.41;6215838;23;20382;-83
2022/09/18 06:28:41;;;;;;;8.57;8.07;;;;;;;24.43;39.82;99723.38;6245073;23;20355;-83
2022/09/18 06:31:08;;;;;;;8.60;8.10;;;;;;;24.48;39.50;99730.75;6216384;23;20459;-84
2022/09/18 06:33:36;;;;;;;9.15;8.45;;;;;;;24.47;39.14;99729.09;6244142;23;20075;-86
2022/09/18 06:36:07;;;;;;;8.45;7.90;;;;;;;24.52;39.59;99745.88;6243637;23;20020;-82
2022/09/18 06:38:34;;;;;;;9.02;8.50;;;;;;;24.56;39.52;99749.59;6243757;23;20024;-88
2022/09/18 06:41:02;;;;;;;8.48;7.78;;;;;;;24.51;39.34;99735.66;6244567;23;20030;-86
2022/09/18 06:43:29;;;;;;;9.30;8.57;;;;;;;24.49;39.58;99730.38;6218563;23;20024;-83
2022/09/18 06:45:56;;;;;;;8.25;7.72;;;;;;;24.56;39.09;99738.97;6243396;23;20059;-85
2022/09/18 06:48:24;;;;;;;8.70;8.18;;;;;;;24.65;38.84;99746.38;6231598;23;20026;-85
2022/09/18 06:50:56;;;;;;;8.23;7.70;;;;;;;24.81;39.24;99761.19;6223217;23;20024;-89
2022/09/18 06:53:24;;;;;;;8.90;8.40;;;;;;;24.70;38.74;99743.97;6222581;23;20332;-86
2022/09/18 06:55:51;;;;;;;9.00;8.20;;;;;;;24.73;39.10;99748.09;6248783;23;20030;-83
2022/09/18 06:58:19;;;;;;;9.23;8.65;;;;;;;24.92;38.79;99770.66;6247874;23;20023;-84
2022/09/18 07:00:45;;;;;;;9.10;8.55;;;;;;;24.83;38.84;99762.44;6245019;23;20016;-86
2022/09/18 07:03:12;;;;;;;9.18;8.55;;;;;;;24.85;38.76;99747.75;6245189;23;20020;-83
2022/09/18 07:05:43;;;;;;;9.45;8.85;;;;;;;24.97;38.88;99761.72;6218378;23;20028;-92
2022/09/18 07:08:11;;;;;;;8.93;8.38;;;;;;;24.83;38.68;99751.03;6245566;23;20020;-88
2022/09/18 07:10:39;;;;;;;9.65;8.75;;;;;;;24.97;38.51;99784.56;6250900;23;20020;-92
2022/09/18 07:13:06;;;;;;;8.95;8.23;;;;;;;24.66;38.37;99748.03;6246803;23;20510;-84
2022/09/18 07:15:33;;;;;;;8.90;8.30;;;;;;;24.70;38.22;99766.00;6245699;23;20024;-85
2022/09/18 07:18:02;;;;;;;8.95;8.25;;;;;;;24.78;38.76;99762.78;6247903;23;20024;-93
2022/09/18 07:20:29;;;;;;;8.80;8.30;;;;;;;24.88;38.37;99786.13;6221094;23;20024;-92
2022/09/18 07:22:59;;;;;;;8.52;8.02;;;;;;;24.81;38.52;99782.00;6251240;23;20485;-94
2022/09/18 07:25:30;;;;;;;9.98;9.10;;;;;;;24.62;38.42;99765.13;6246168;23;20075;-85
2022/09/18 07:28:07;;;;;;;10.18;9.23;;;;;;;24.72;38.60;99790.09;6243307;23;20031;-82
2022/09/18 07:30:36;;;;;;;8.98;8.38;;;;;;;24.58;38.72;99784.25;6218128;23;20020;-86
2022/09/18 07:33:05;;;;;;;8.98;8.38;;;;;;;24.49;39.26;99752.38;6216996;23;20026;-86
2022/09/18 07:35:32;;;;;;;9.57;8.53;;;;;;;24.54;40.07;99781.34;6242261;23;20310;-86
2022/09/18 07:38:00;;;;;;;9.43;8.82;;;;;;;24.55;40.10;99777.31;6242869;23;20035;-85
2022/09/18 07:40:28;;;;;;;7.93;7.50;;;;;;;24.29;39.16;99724.03;6243136;23;20503;-85
2022/09/18 07:43:07;;;;;;;7.43;6.95;;;;;;;24.62;38.77;99801.44;6210420;23;20024;-84
2022/09/18 07:45:35;;;;;;;7.68;7.28;;;;;;;24.61;38.81;99816.91;6211916;23;20042;-87
2022/09/18 07:48:04;;;;;;;7.85;7.35;;;;;;;24.55;38.16;99776.50;6214760;23;20023;-87
2022/09/18 07:50:32;;;;;;;8.57;7.35;;;;;;;24.68;38.29;99797.78;6212283;23;20031;-83
2022/09/18 07:53:04;;;;;;;8.05;7.55;;;;;;;24.52;37.95;99763.00;6211924;23;20443;-87
2022/09/18 07:55:34;;;;;;;7.95;7.47;;;;;;;24.76;37.36;99808.06;6216031;23;20020;-87
2022/09/18 07:58:03;;;;;;;8.63;8.10;;;;;;;24.79;37.22;99798.72;6216804;23;20031;-84
2022/09/18 08:00:34;;;;;;;7.22;6.82;;;;;;;24.43;36.95;99743.34;6218692;23;20021;-84
2022/09/18 08:03:06;;;;;;;10.20;9.48;;;;;;;24.87;37.14;99804.50;6214782;23;20031;-85
2022/09/18 08:05:34;;;;;;;7.35;6.93;;;;;;;24.93;37.07;99805.75;6213110;23;20348;-77
2022/09/18 08:08:11;;;;;;;7.32;6.93;;;;;;;24.93;36.56;99806.59;6214469;23;20356;-80
2022/09/18 08:10:40;;;;;;;7.63;7.25;;;;;;;24.97;36.74;99796.00;6211866;23;20127;-81
2022/09/18 08:13:08;;;;;;;8.27;7.78;;;;;;;25.37;36.65;99802.84;6209073;23;20021;-80
2022/09/18 08:15:37;;;;;;;9.95;9.35;;;;;;;25.34;35.61;99788.53;6211256;23;20020;-91
2022/09/18 08:18:05;;;;;;;8.35;7.82;;;;;;;25.51;35.77;99822.09;6209766;23;20020;-82
2022/09/18 08:20:33;;;;;;;7.88;7.47;;;;;;;25.46;35.46;99791.84;6210545;23;20016;-83
2022/09/18 08:23:02;;;;;;;8.63;7.75;;;;;;;26.13;34.92;99812.59;6211957;23;20482;-82
2022/09/18 08:25:29;;;;;;;7.63;7.18;;;;;;;26.63;34.30;99833.59;6208896;23;20043;-83
2022/09/18 08:28:01;;;;;;;7.32;6.93;;;;;;;26.19;34.21;99768.88;6185867;23;20036;-83
2022/09/18 08:30:29;;;;;;;8.02;7.57;;;;;;;26.67;33.92;99830.72;6213563;23;20044;-83
2022/09/18 08:33:00;;;;;;;9.30;8.38;;;;;;;26.92;33.16;99804.94;6210333;23;20107;-85
2022/09/18 08:35:29;;;;;;;8.73;8.23;;;;;;;26.86;32.28;99800.84;6216212;23;20025;-83
2022/09/18 08:37:56;;;;;;;8.60;8.10;;;;;;;26.68;32.68;99787.34;6218151;23;20100;-87
2022/09/18 08:40:52;;;;;;;8.18;7.47;;;;;;;26.43;32.36;99769.31;6212556;23;20056;-82
2022/09/18 08:43:52;;;;;;;7.97;7.30;;;;;;;27.01;32.28;99845.47;6212407;23;20474;-82
2022/09/18 08:46:39;;;;;;;7.38;6.88;;;;;;;26.52;32.37;99847.03;6209220;23;20024;-83
2022/09/18 08:49:15;;;;;;;7.10;6.70;;;;;;;26.26;32.77;99855.94;6197122;23;20025;-84
2022/09/18 08:51:53;;;;;;;8.55;7.90;;;;;;;25.90;32.74;99839.47;6210199;23;20021;-84
2022/09/18 08:54:46;;;;;;;8.65;7.95;;;;;;;25.92;32.82;99867.69;6208055;23;20031;-83
2022/09/18 08:57:18;;;;;;;8.55;8.00;;;;;;;25.81;33.31;99863.94;6204965;23;20025;-83
2022/09/18 08:59:52;;;;;;;8.85;8.07;;;;;;;25.51;33.40;99837.22;6209929;23;20025;-87
2022/09/18 09:02:46;;;;;;;7.95;7.30;;;;;;;25.66;34.22;99869.56;6208566;23;20334;-83
2022/09/18 09:05:34;;;;;;;7.72;7.22;;;;;;;25.51;33.57;99851.50;6208901;23;20040;-83
2022/09/18 09:08:37;;;;;;;9.55;8.73;;;;;;;25.57;33.65;99862.56;6211121;23;20032;-84
2022/09/18 09:11:31;;;;;;;8.43;7.93;;;;;;;25.46;34.00;99825.31;6184519;23;20048;-84
2022/09/18 09:14:14;;;;;;;8.10;7.38;;;;;;;25.56;33.32;99800.88;6211085;23;20031;-84
2022/09/18 09:16:59;;;;;;;10.45;9.57;;;;;;;25.86;33.14;99855.00;6212402;23;20107;-84
2022/09/18 09:19:32;;;;;;;10.18;9.25;;;;;;;26.31;32.67;99867.00;6211667;23;20032;-84
2022/09/18 09:22:19;;;;;;;1.98;1.33;;;;;;;26.71;32.22;99868.78;6211951;23;20040;-84
2022/09/18 09:25:09;;;;;;;3.50;1.50;;;;;;;27.15;31.79;99865.56;6211052;23;20043;-84
2022/09/18 09:27:45;;;;;;;3.30;2.85;;;;;;;27.65;30.94;99879.78;6215060;23;20486;-87
2022/09/18 09:30:20;;;;;;;5.93;1.60;;;;;;;28.19;30.36;99882.53;6214397;23;20046;-86
2022/09/18 09:33:00;;;;;;;4.95;1.83;;;;;;;28.94;29.82;99884.16;6211766;23;20021;-85
2022/09/18 09:35:54;;;;;;;2.17;1.70;;;;;;;29.37;28.63;99889.56;6210604;23;20034;-85
2022/09/18 09:38:21;;;;;;;4.15;2.08;;;;;;;29.76;28.95;99897.84;6214401;23;20034;-86
2022/09/18 09:40:52;;;;;;;3.63;2.00;;;;;;;30.26;29.12;99888.66;6213698;23;20025;-86
2022/09/18 09:43:34;;;;;;;2.97;1.67;;;;;;;30.01;28.04;99807.47;6213644;23;20476;-85
2022/09/18 09:46:22;;;;;;;2.45;1.70;;;;;;;30.67;27.75;99858.84;6217257;23;20021;-86
2022/09/18 09:49:04;;;;;;;3.17;1.98;;;;;;;31.01;27.40;99864.50;6215359;23;20459;-85
2022/09/18 09:51:43;;;;;;;9.57;8.75;;;;;;;31.16;27.64;99882.38;6216106;23;20043;-84
2022/09/18 09:54:11;;;;;;;10.52;9.93;;;;;;;31.14;26.95;99885.69;6216776;23;20474;-86
2022/09/18 09:56:44;;;;;;;13.40;12.35;;;;;;;31.45;27.16;99900.03;6190984;23;20016;-85
2022/09/18 09:59:33;;;;;;;10.18;9.57;;;;;;;31.56;27.32;99859.44;6216581;23;20017;-83
2022/09/18 10:02:03;;;;;;;;;;;;;;;31.59;26.45;99899.78;6236049;23;20044;-85
2022/09/18 10:04:37;;;;;;;2.33;1.60;;;;;;;31.70;26.35;99876.50;6240597;23;19916;-84
2022/09/18 10:08:00;;;;;;;4.25;1.80;;;;;;;31.94;26.03;99885.13;6243351;23;20005;-85
2022/09/18 10:10:29;;;;;;;4.05;1.80;;;;;;;32.06;25.86;99896.81;6169384;23;20031;-85
2022/09/18 10:13:00;;;;;;;4.25;1.75;;;;;;;32.25;25.83;99900.16;6216019;23;20028;-86
2022/09/18 10:15:32;;;;;;;2.65;2.05;;;;;;;32.61;26.24;99897.31;6216276;23;20663;-85
2022/09/18 10:18:04;;;;;;;1.42;1.13;;;;;;;32.44;25.63;99875.41;6216572;23;20021;-84
2022/09/18 10:20:32;;;;;;;2.10;1.83;;;;;;;32.49;25.56;99881.50;6219415;23;20027;-85
2022/09/18 10:23:13;;;;;;;3.47;1.98;;;;;;;32.48;25.42;99874.09;6217052;23;20026;-85
2022/09/18 10:25:59;;;;;;;2.53;1.92;;;;;;;32.55;25.17;99893.34;6216644;23;20031;-86
2022/09/18 10:28:28;;;;;;;2.67;1.65;;;;;;;32.53;25.30;99875.63;6215678;23;20025;-85
2022/09/18 10:31:09;;;;;;;3.33;1.95;;;;;;;32.80;24.87;99886.97;6215928;23;20333;-86
2022/09/18 10:33:39;;;;;;;3.40;1.80;;;;;;;33.19;25.01;99883.13;6216204;23;20551;-86
2022/09/18 10:36:34;;;;;;;2.35;1.90;;;;;;;33.47;25.00;99878.72;6216170;23;20033;-85
2022/09/18 10:39:35;;;;;;;1.98;1.75;;;;;;;33.76;24.91;99886.63;6213854;23;20024;-85
2022/09/18 10:42:04;;;;;;;2.30;1.77;;;;;;;33.72;24.73;99869.38;6239255;23;20095;-85
2022/09/18 10:44:38;;;;;;;5.13;2.67;;;;;;;34.15;24.61;99879.72;6214767;23;20100;-85
2022/09/18 10:47:07;;;;;;;3.95;2.63;;;;;;;34.52;24.62;99880.31;6213044;23;20017;-85
2022/09/18 10:49:42;;;;;;;2.78;1.45;;;;;;;34.67;24.60;99866.19;6216943;23;20021;-85
2022/09/18 10:52:30;;;;;;;3.95;1.40;;;;;;;34.53;23.80;99881.13;6215939;23;20021;-86
2022/09/18 10:54:57;;;;;;;;;;;;;;;34.40;25.01;99875.28;6216715;23;20021;-84
2022/09/18 10:57:30;;;;;;;2.95;1.63;;;;;;;34.66;24.09;99874.06;6217862;23;19916;-86
2022/09/18 10:59:58;;;;;;;4.40;2.03;;;;;;;34.97;24.25;99873.47;6215557;23;20456;-85
2022/09/18 11:02:32;;;;;;;3.40;1.70;;;;;;;35.06;23.90;99853.31;6191204;23;20017;-86
2022/09/18 11:05:01;;;;;;;3.13;2.03;;;;;;;35.26;23.42;99834.84;6215743;23;20024;-85
2022/09/18 11:07:28;;;;;;;3.95;1.83;;;;;;;35.55;23.94;99861.59;6217549;23;20111;-86
2022/09/18 11:09:56;;;;;;;4.32;3.15;;;;;;;35.71;24.22;99854.81;6217968;23;20016;-83
2022/09/18 11:12:27;;;;;;;3.03;1.77;;;;;;;35.63;23.73;99795.38;6216700;23;20020;-84
2022/09/18 11:15:06;;;;;;;3.30;1.80;;;;;;;36.09;23.67;99868.38;6218477;23;20021;-84
2022/09/18 11:17:37;;;;;;;;;;;;;;;35.72;24.11;99864.31;6216748;23;20088;-85
2022/09/18 11:20:05;;;;;;;3.05;1.88;;;;;;;36.10;23.50;99863.38;6216980;23;19916;-84
2022/09/18 11:22:41;;;;;;;4.38;2.10;;;;;;;36.16;23.43;99833.22;6221051;23;20031;-84
2022/09/18 11:25:21;;;;;;;3.58;2.45;;;;;;;36.59;23.18;99854.81;6223410;23;20051;-84
2022/09/18 11:27:54;;;;;;;3.88;2.30;;;;;;;36.81;23.37;99840.19;6221209;23;20028;-83
2022/09/18 11:30:30;;;;;;;3.65;2.00;;;;;;;36.84;22.72;99827.59;6224646;23;20024;-85
2022/09/18 11:33:36;;;;;;;2.88;2.03;;;;;;;36.93;22.58;99861.75;6225595;23;20021;-83
2022/09/18 11:36:08;;;;;;;2.67;1.80;;;;;;;37.00;22.17;99844.84;6223811;23;20020;-86
2022/09/18 11:38:44;;;;;;;6.63;2.60;;;;;;;37.41;22.56;99833.94;6218391;23;20021;-85
2022/09/18 11:41:12;;;;;;;3.67;2.58;;;;;;;37.82;22.06;99852.09;6218785;23;20028;-85
2022/09/18 11:43:42;;;;;;;5.95;3.58;;;;;;;37.81;21.91;99824.22;6219870;23;20402;-85
2022/09/18 11:46:21;;;;;;;6.05;2.00;;;;;;;38.41;21.49;99863.56;6219558;23;20356;-86
2022/09/18 11:49:17;;;;;;;5.90;2.38;;;;;;;38.73;21.33;99826.19;6218953;23;20016;-84
2022/09/18 11:51:47;;;;;;;3.85;2.47;;;;;;;39.25;20.86;99856.09;6220216;23;20039;-86
2022/09/18 11:54:28;;;;;;;2.53;1.92;;;;;;;39.57;20.33;99828.16;6219632;23;20046;-85
2022/09/18 11:57:00;;;;;;;4.82;2.13;;;;;;;39.80;19.89;99803.97;6218945;23;20485;-86
2022/09/18 11:59:36;;;;;;;2.65;1.92;;;;;;;40.19;18.78;99809.75;6217550;23;20024;-86